Time;durP1;ratioP1;P1;durP2;ratioP2;P2;SDS_P1;SDS_P2;PMS_P1;PMS_P2;Temp;Humidity;BMP_temperature;BMP_pressure;BME280_temperature;BME280_humidity;BME280_pressure;Samples;Min_cycle;Max_cycle;Signal;HPM_P1;HPM_P2
2022/04/06 00:00:27;;;;;;;17.83;8.77;;;;;;;8.67;54.24;99315.44;3154883;28;20437;-70
2022/04/06 00:01:59;;;;;;;13.60;8.15;;;;;;;8.66;54.32;99311.97;3154350;28;20487;-69
2022/04/06 00:03:31;;;;;;;20.02;8.32;;;;;;;8.66;54.32;99305.94;3144860;28;20641;-69
2022/04/06 00:05:03;;;;;;;17.83;9.48;;;;;;;8.64;54.24;99313.81;3151979;28;20061;-69
2022/04/06 00:06:35;;;;;;;15.13;8.02;;;;;;;8.62;54.21;99310.44;3144938;28;20571;-70
2022/04/06 00:08:07;;;;;;;14.55;7.85;;;;;;;8.63;54.31;99319.06;3147260;28;20088;-70
2022/04/06 00:09:39;;;;;;;14.15;8.27;;;;;;;8.53;54.31;99304.81;3144707;28;20052;-70
2022/04/06 00:11:12;;;;;;;18.02;9.07;;;;;;;8.57;54.26;99314.97;3148531;28;20044;-69
2022/04/06 00:12:44;;;;;;;13.52;8.18;;;;;;;8.58;54.26;99324.47;3156913;28;20487;-69
2022/04/06 00:14:17;;;;;;;17.85;8.80;;;;;;;8.58;54.29;99324.47;3156631;28;20557;-70
2022/04/06 00:15:48;;;;;;;15.27;7.93;;;;;;;8.55;54.23;99326.38;3147131;28;20102;-70
2022/04/06 00:17:21;;;;;;;13.10;7.82;;;;;;;8.48;54.58;99311.97;3144708;28;20143;-69
2022/04/06 00:18:53;;;;;;;15.48;8.10;;;;;;;8.50;54.25;99325.72;3155062;28;20056;-69
2022/04/06 00:20:24;;;;;;;20.83;8.93;;;;;;;8.47;54.27;99325.84;3156697;28;20055;-69
2022/04/06 00:21:56;;;;;;;17.60;8.45;;;;;;;8.47;54.49;99326.69;3153857;28;20045;-70
2022/04/06 00:23:28;;;;;;;19.30;8.75;;;;;;;8.45;54.46;99328.50;3153879;28;20048;-69
2022/04/06 00:25:00;;;;;;;13.95;8.60;;;;;;;8.43;54.55;99323.41;3155448;28;20496;-70
2022/04/06 00:26:35;;;;;;;18.45;8.93;;;;;;;8.46;54.55;99329.34;3152101;28;20048;-69
2022/04/06 00:28:09;;;;;;;22.67;9.32;;;;;;;8.43;54.58;99330.34;3156051;28;20151;-69
2022/04/06 00:29:41;;;;;;;17.60;8.88;;;;;;;8.27;54.57;99308.53;3150602;28;20482;-69
2022/04/06 00:31:13;;;;;;;14.43;8.32;;;;;;;8.36;54.65;99315.91;3156583;28;20448;-69
2022/04/06 00:32:45;;;;;;;17.25;8.55;;;;;;;8.39;54.76;99332.22;3149079;28;20085;-70
2022/04/06 00:34:17;;;;;;;14.88;8.43;;;;;;;8.40;54.66;99326.13;3156755;28;20085;-70
2022/04/06 00:35:50;;;;;;;15.52;8.35;;;;;;;8.42;54.84;99328.63;3154551;28;20525;-70
2022/04/06 00:37:22;;;;;;;14.20;8.43;;;;;;;8.39;54.58;99333.97;3156713;28;20130;-69
2022/04/06 00:38:55;;;;;;;17.60;9.10;;;;;;;8.39;54.64;99332.22;3148267;28;20083;-69
2022/04/06 00:40:27;;;;;;;15.23;8.05;;;;;;;8.38;54.68;99327.94;3155552;28;20047;-69
2022/04/06 00:42:00;;;;;;;14.63;8.20;;;;;;;8.38;54.72;99333.13;3155157;28;20052;-69
2022/04/06 00:43:32;;;;;;;14.52;8.32;;;;;;;8.31;54.65;99326.50;3146531;28;20048;-69
2022/04/06 00:45:04;;;;;;;18.27;8.85;;;;;;;8.36;54.25;99334.06;3147174;28;20063;-69
2022/04/06 00:46:36;;;;;;;17.13;8.43;;;;;;;8.31;54.71;99325.63;3151460;28;20066;-69
2022/04/06 00:48:10;;;;;;;14.77;8.13;;;;;;;8.31;54.73;99325.63;3156419;28;20052;-69
2022/04/06 00:49:41;;;;;;;16.42;8.80;;;;;;;8.28;54.79;99331.81;3153433;28;20043;-69
2022/04/06 00:51:14;;;;;;;15.50;8.88;;;;;;;8.32;54.75;99333.38;3148655;28;20053;-69
2022/04/06 00:52:46;;;;;;;14.75;8.10;;;;;;;8.28;54.87;99334.41;3148584;28;20049;-68
2022/04/06 00:54:20;;;;;;;12.85;7.75;;;;;;;8.25;54.87;99323.31;3156339;28;20439;-69
2022/04/06 00:55:53;;;;;;;19.23;7.75;;;;;;;8.26;54.94;99327.59;3146656;28;20480;-69
2022/04/06 00:57:26;;;;;;;19.17;8.10;;;;;;;8.29;54.92;99332.66;3150672;28;20053;-69
2022/04/06 00:58:58;;;;;;;;;;;;;;;8.09;55.10;99330.91;3146644;28;20060;-69
2022/04/06 01:00:30;;;;;;;20.70;9.10;;;;;;;8.14;55.29;99335.00;3153230;28;19920;-69
2022/04/06 01:02:03;;;;;;;18.65;8.63;;;;;;;8.17;55.14;99334.03;3156141;28;20052;-69
2022/04/06 01:03:35;;;;;;;13.20;7.25;;;;;;;8.19;55.17;99334.78;3152210;28;20050;-69
2022/04/06 01:05:08;;;;;;;17.35;7.40;;;;;;;8.19;55.11;99332.19;3148921;28;20074;-69
2022/04/06 01:06:40;;;;;;;14.43;7.70;;;;;;;8.12;55.07;99326.44;3148961;28;20059;-68
2022/04/06 01:08:12;;;;;;;13.10;7.53;;;;;;;8.14;55.18;99328.97;3144594;28;20052;-69
2022/04/06 01:09:44;;;;;;;15.30;7.65;;;;;;;8.15;55.13;99338.44;3149547;28;20060;-69
2022/04/06 01:11:16;;;;;;;14.02;7.20;;;;;;;8.16;55.12;99340.97;3155246;28;20074;-68
2022/04/06 01:12:50;;;;;;;15.82;7.47;;;;;;;8.18;55.17;99343.47;3149737;28;20056;-69
2022/04/06 01:14:22;;;;;;;12.77;7.45;;;;;;;8.13;55.13;99343.69;3155276;28;20051;-69
2022/04/06 01:15:54;;;;;;;14.82;7.68;;;;;;;8.15;55.31;99341.84;3153756;28;20142;-69
2022/04/06 01:17:33;;;;;;;14.10;7.40;;;;;;;8.11;54.99;99335.13;3144406;28;20052;-68
2022/04/06 01:19:05;;;;;;;16.63;7.55;;;;;;;8.05;55.37;99324.19;3147095;28;20646;-69
2022/04/06 01:20:37;;;;;;;14.02;8.00;;;;;;;8.13;55.43;99340.22;3151068;28;20139;-68
2022/04/06 01:22:12;;;;;;;13.52;7.78;;;;;;;8.07;55.29;99330.97;3156372;28;20143;-69
2022/04/06 01:23:45;;;;;;;15.50;7.97;;;;;;;8.13;55.38;99338.50;3149668;28;20063;-68
2022/04/06 01:25:17;;;;;;;19.02;7.72;;;;;;;8.10;55.43;99342.97;3154575;28;20079;-68
2022/04/06 01:26:48;;;;;;;17.65;8.15;;;;;;;8.11;55.37;99339.47;3147440;28;20058;-68
2022/04/06 01:28:20;;;;;;;14.68;7.80;;;;;;;8.08;55.40;99343.03;3152285;28;20106;-68
2022/04/06 01:29:52;;;;;;;16.48;8.82;;;;;;;8.07;55.48;99343.09;3150173;28;20053;-68
2022/04/06 01:31:23;;;;;;;23.50;8.77;;;;;;;8.05;55.51;99344.94;3146444;28;20045;-68
2022/04/06 01:32:57;;;;;;;15.45;8.30;;;;;;;8.06;55.62;99346.59;3152258;28;20052;-68
2022/04/06 01:34:29;;;;;;;14.13;7.72;;;;;;;8.01;55.57;99345.94;3145280;28;20139;-68
2022/04/06 01:36:02;;;;;;;17.50;8.52;;;;;;;7.85;55.66;99323.25;3149454;28;20125;-68
2022/04/06 01:37:36;;;;;;;13.65;7.55;;;;;;;7.71;55.86;99299.66;3147985;28;20058;-70
2022/04/06 01:39:07;;;;;;;14.98;8.18;;;;;;;8.01;55.72;99351.13;3149960;28;20838;-69
2022/04/06 01:40:39;;;;;;;13.82;8.13;;;;;;;7.99;55.78;99353.81;3138544;28;20386;-69
2022/04/06 01:42:15;;;;;;;17.00;7.93;;;;;;;8.00;55.83;99357.22;3141033;28;20056;-69
2022/04/06 01:43:47;;;;;;;16.45;9.25;;;;;;;7.97;55.91;99356.44;3140633;28;20051;-69
2022/04/06 01:45:20;;;;;;;17.97;8.20;;;;;;;7.94;55.90;99353.16;3149545;28;20059;-69
2022/04/06 01:46:52;;;;;;;15.07;8.25;;;;;;;7.93;56.03;99362.69;3142295;28;20151;-70
2022/04/06 01:48:24;;;;;;;20.45;8.75;;;;;;;7.91;56.13;99367.06;3142866;28;20052;-69
2022/04/06 01:53:33;;;;;;;16.90;8.48;;;;;;;7.82;56.26;99357.09;3134692;28;20063;-68
2022/04/06 01:55:08;;;;;;;15.15;8.70;;;;;;;7.86;56.22;99365.56;3141075;28;20067;-68
2022/04/06 01:56:38;;;;;;;17.63;8.82;;;;;;;7.84;56.45;99370.84;3142634;28;20052;-68
2022/04/06 01:58:10;;;;;;;17.45;8.57;;;;;;;7.85;56.31;99361.31;3146131;28;20059;-68
2022/04/06 01:59:43;;;;;;;13.50;8.13;;;;;;;7.84;56.42;99364.78;3148304;28;20384;-68
2022/04/06 02:01:15;;;;;;;15.77;8.60;;;;;;;7.78;56.36;99358.13;3143729;28;20048;-69
2022/04/06 02:02:51;;;;;;;15.20;9.02;;;;;;;7.84;56.45;99368.25;3149103;28;20125;-69
2022/04/06 02:04:22;;;;;;;20.60;8.95;;;;;;;7.81;56.52;99367.50;3136785;28;20048;-69
2022/04/06 02:05:54;;;;;;;15.55;9.30;;;;;;;7.81;56.58;99362.31;3149009;28;20052;-68
2022/04/06 02:07:26;;;;;;;17.60;8.65;;;;;;;7.78;56.54;99360.72;3146044;28;20056;-68
2022/04/06 02:08:59;;;;;;;14.13;8.85;;;;;;;7.77;56.58;99363.34;3148442;28;20125;-68
2022/04/06 02:10:31;;;;;;;;;;;;;;;7.59;56.68;99370.13;3143056;28;20055;-69
2022/04/06 02:12:04;;;;;;;14.60;9.25;;;;;;;7.62;56.85;99372.59;3149156;28;20322;-69
2022/04/06 02:13:36;;;;;;;24.02;11.48;;;;;;;7.66;56.92;99366.38;3143813;28;20056;-69
2022/04/06 02:15:11;;;;;;;18.08;9.75;;;;;;;7.65;56.87;99362.94;3142117;28;20377;-69
2022/04/06 02:16:43;;;;;;;21.25;9.85;;;;;;;7.66;56.95;99358.59;3136925;28;20063;-69
2022/04/06 02:18:15;;;;;;;16.58;9.60;;;;;;;7.61;57.10;99366.56;3140386;28;20048;-68
2022/04/06 02:19:47;;;;;;;22.48;9.23;;;;;;;7.63;57.06;99369.09;3146677;28;20056;-68
2022/04/06 02:21:19;;;;;;;18.73;9.48;;;;;;;7.61;57.20;99371.75;3148558;28;20121;-69
2022/04/06 02:22:51;;;;;;;18.67;9.63;;;;;;;7.59;57.29;99375.31;3140453;28;20059;-68
2022/04/06 02:24:24;;;;;;;16.67;9.35;;;;;;;7.60;57.18;99371.81;3138202;28;20052;-69
2022/04/06 02:25:56;;;;;;;17.98;9.02;;;;;;;7.56;57.16;99380.63;3148756;28;20066;-69
2022/04/06 02:27:28;;;;;;;20.75;8.98;;;;;;;7.56;57.33;99372.84;3140674;28;20289;-69
2022/04/06 02:29:00;;;;;;;16.33;9.02;;;;;;;7.54;57.24;99380.66;3143034;28;20048;-69
2022/04/06 02:30:32;;;;;;;20.60;9.35;;;;;;;7.52;57.38;99382.50;3141906;28;20056;-69
2022/04/06 02:32:05;;;;;;;16.13;9.68;;;;;;;7.49;57.42;99383.44;3146695;28;20059;-69
2022/04/06 02:33:37;;;;;;;19.13;9.35;;;;;;;7.46;57.37;99380.97;3145912;28;20773;-69
2022/04/06 02:35:10;;;;;;;19.40;9.82;;;;;;;7.10;57.40;99326.28;3142825;28;20139;-69
2022/04/06 02:36:42;;;;;;;16.90;9.25;;;;;;;7.46;57.40;99387.91;3143448;28;20714;-69
2022/04/06 02:38:14;;;;;;;16.40;8.30;;;;;;;7.44;57.50;99387.97;3142529;28;20485;-70
2022/04/06 02:39:49;;;;;;;15.93;8.82;;;;;;;7.39;57.42;99376.91;3148202;28;20895;-69
2022/04/06 02:41:22;;;;;;;17.23;8.88;;;;;;;7.40;57.47;99381.22;3148629;28;20044;-69
2022/04/06 02:42:53;;;;;;;20.23;8.70;;;;;;;7.41;57.35;99385.47;3137868;28;20540;-67
2022/04/06 02:44:24;;;;;;;18.88;8.60;;;;;;;7.29;57.59;99376.44;3142730;28;20056;-69
2022/04/06 02:45:56;;;;;;;16.23;9.65;;;;;;;7.40;57.58;99394.16;3148591;28;20159;-69
2022/04/06 02:47:28;;;;;;;17.60;8.73;;;;;;;7.39;57.58;99392.47;3147772;28;20110;-68
2022/04/06 02:49:00;;;;;;;16.40;9.20;;;;;;;7.36;57.80;99392.59;3145874;28;20155;-69
2022/04/06 02:50:33;;;;;;;15.75;8.55;;;;;;;7.35;57.77;99398.69;3145963;28;20056;-68
2022/04/06 02:52:07;;;;;;;16.45;9.32;;;;;;;7.28;57.76;99392.91;3138226;28;20053;-69
2022/04/06 02:53:39;;;;;;;17.38;9.00;;;;;;;7.33;57.85;99399.63;3140042;28;20604;-68
2022/04/06 02:55:13;;;;;;;17.15;9.65;;;;;;;7.33;57.82;99395.28;3144683;28;20159;-68
2022/04/06 02:56:45;;;;;;;14.90;9.48;;;;;;;7.29;58.06;99385.97;3136748;28;20048;-69
2022/04/06 02:58:17;;;;;;;17.25;9.55;;;;;;;7.22;57.85;99387.13;3148282;28;20219;-69
2022/04/06 02:59:49;;;;;;;18.42;9.75;;;;;;;7.31;57.91;99402.31;3139883;28;20088;-69
2022/04/06 03:01:22;;;;;;;16.65;8.55;;;;;;;7.29;57.94;99402.34;3147353;28;20052;-68
2022/04/06 03:02:54;;;;;;;19.60;8.57;;;;;;;7.27;58.04;99403.28;3148744;28;20142;-68
2022/04/06 03:04:26;;;;;;;18.58;9.05;;;;;;;7.26;58.13;99402.47;3142185;28;20198;-68
2022/04/06 03:05:58;;;;;;;18.23;8.43;;;;;;;7.25;58.12;99403.38;3147486;28;20062;-68
2022/04/06 03:07:30;;;;;;;19.75;9.63;;;;;;;7.19;58.16;99397.59;3142950;28;20057;-67
2022/04/06 03:09:02;;;;;;;17.08;9.40;;;;;;;7.20;58.22;99397.50;3144885;28;20063;-69
2022/04/06 03:10:35;;;;;;;18.88;9.50;;;;;;;7.25;58.31;99410.31;3147219;28;20059;-70
2022/04/06 03:12:08;;;;;;;17.35;10.23;;;;;;;7.22;58.32;99405.25;3143662;28;20063;-69
2022/04/06 03:13:40;;;;;;;18.30;9.38;;;;;;;7.19;58.50;99403.59;3149120;28;20055;-69
2022/04/06 03:15:12;;;;;;;25.70;10.20;;;;;;;7.21;58.57;99408.72;3145020;28;20056;-69
2022/04/06 03:16:44;;;;;;;20.13;9.82;;;;;;;7.17;58.61;99408.00;3148859;28;20056;-69
2022/04/06 03:18:16;;;;;;;19.98;10.90;;;;;;;7.19;58.60;99415.72;3142970;28;20673;-69
2022/04/06 03:19:48;;;;;;;20.45;10.45;;;;;;;7.12;58.72;99403.88;3147731;28;20155;-71
2022/04/06 03:21:20;;;;;;;19.35;10.70;;;;;;;7.18;58.75;99408.81;3143264;28;20075;-70
2022/04/06 03:22:52;;;;;;;22.45;10.02;;;;;;;7.16;58.83;99410.63;3137468;28;20062;-69
2022/04/06 03:24:24;;;;;;;20.35;11.02;;;;;;;7.17;58.88;99407.16;3139418;28;20052;-69
2022/04/06 03:25:57;;;;;;;19.33;10.80;;;;;;;7.16;59.01;99411.50;3144135;28;20662;-69
2022/04/06 03:27:29;;;;;;;23.65;11.07;;;;;;;7.14;58.99;99407.25;3140302;28;20048;-68
2022/04/06 03:29:01;;;;;;;20.38;11.70;;;;;;;7.07;59.07;99406.66;3144377;28;20085;-68
2022/04/06 03:30:34;;;;;;;21.52;11.15;;;;;;;7.04;59.22;99401.59;3147508;28;20516;-68
2022/04/06 03:32:07;;;;;;;19.40;10.60;;;;;;;7.09;59.15;99411.75;3147301;28;20056;-68
2022/04/06 03:33:39;;;;;;;19.05;10.38;;;;;;;6.98;59.17;99397.50;3140745;28;20062;-68
2022/04/06 03:35:11;;;;;;;21.77;11.45;;;;;;;7.06;59.33;99421.31;3144175;28;20055;-69
2022/04/06 03:36:43;;;;;;;24.15;10.75;;;;;;;7.07;59.28;99423.03;3138627;28;20105;-68
2022/04/06 03:38:15;;;;;;;21.80;11.20;;;;;;;7.03;59.33;99421.44;3140580;28;20101;-68
2022/04/06 03:39:46;;;;;;;28.05;12.38;;;;;;;7.05;59.27;99429.16;3146091;28;20105;-67
2022/04/06 03:41:20;;;;;;;19.63;11.02;;;;;;;7.04;59.17;99430.06;3151114;28;20314;-68
2022/04/06 03:42:50;;;;;;;;;;;;;;;6.82;59.47;99422.22;3135767;28;20056;-69
2022/04/06 03:44:22;;;;;;;25.35;10.55;;;;;;;6.88;59.58;99422.00;3146972;28;19931;-70
2022/04/06 03:45:55;;;;;;;21.38;11.30;;;;;;;6.92;59.47;99427.91;3142043;28;20453;-70
2022/04/06 03:47:30;;;;;;;21.17;11.00;;;;;;;6.91;59.40;99419.31;3135021;28;20052;-69
2022/04/06 03:49:02;;;;;;;22.40;10.25;;;;;;;6.84;59.32;99410.09;3139669;28;20052;-70
2022/04/06 03:50:34;;;;;;;19.05;10.80;;;;;;;6.92;59.49;99418.41;3147623;28;20103;-69
2022/04/06 03:52:07;;;;;;;23.15;11.02;;;;;;;6.94;59.43;99423.53;3138901;28;20079;-69
2022/04/06 03:53:39;;;;;;;22.77;10.77;;;;;;;6.91;59.51;99427.06;3146308;28;20080;-69
2022/04/06 03:55:11;;;;;;;23.75;10.20;;;;;;;6.92;59.66;99427.91;3146643;28;20060;-71
2022/04/06 03:56:45;;;;;;;22.83;10.15;;;;;;;6.93;59.43;99424.44;3145417;28;20059;-70
2022/04/06 03:58:17;;;;;;;;;;;;;;;6.71;59.57;99425.19;3147255;28;20235;-69
2022/04/06 03:59:48;;;;;;;18.30;9.90;;;;;;;6.70;59.71;99420.06;3144186;28;20281;-69
2022/04/06 04:01:20;;;;;;;24.55;10.63;;;;;;;6.80;59.69;99429.19;3140920;28;20330;-69
2022/04/06 04:02:54;;;;;;;16.73;9.25;;;;;;;6.77;59.59;99419.81;3137732;28;20060;-69
2022/04/06 04:04:28;;;;;;;19.08;10.52;;;;;;;6.84;59.53;99425.59;3135569;28;20505;-67
2022/04/06 04:06:00;;;;;;;22.63;10.35;;;;;;;6.81;59.40;99429.16;3141792;28;20060;-68
2022/04/06 04:07:31;;;;;;;25.52;9.45;;;;;;;6.87;59.44;99438.44;3146731;28;20597;-68
2022/04/06 04:09:04;;;;;;;23.95;10.68;;;;;;;6.82;59.66;99427.41;3147491;28;20096;-68
2022/04/06 04:10:36;;;;;;;19.65;10.60;;;;;;;6.78;59.75;99431.84;3134795;28;20472;-68
2022/04/06 04:12:11;;;;;;;18.92;9.52;;;;;;;6.83;59.65;99442.03;3138546;28;20048;-69
2022/04/06 04:13:43;;;;;;;28.27;11.57;;;;;;;6.84;59.85;99447.16;3146028;28;20048;-69
2022/04/06 04:15:15;;;;;;;20.15;9.50;;;;;;;6.89;59.72;99444.41;3139344;28;20052;-69
2022/04/06 04:16:47;;;;;;;17.73;10.13;;;;;;;6.91;59.56;99446.94;3140408;28;20060;-69
2022/04/06 04:18:19;;;;;;;21.08;10.20;;;;;;;6.94;59.55;99441.66;3137225;28;20153;-69
2022/04/06 04:19:50;;;;;;;19.90;10.07;;;;;;;6.91;59.42;99427.06;3141282;28;20143;-69
2022/04/06 04:21:34;;;;;;;23.92;11.23;;;;;;;7.13;59.38;99457.34;3147575;28;20056;-69
2022/04/06 04:23:06;;;;;;;23.52;9.80;;;;;;;7.37;59.13;99460.81;3139743;28;20170;-69
2022/04/06 04:24:38;;;;;;;20.15;9.40;;;;;;;7.67;58.69;99464.81;3147371;28;20146;-70
2022/04/06 04:26:11;;;;;;;18.67;9.80;;;;;;;7.98;57.89;99463.59;3147265;28;20059;-70
2022/04/06 04:27:44;;;;;;;23.60;10.07;;;;;;;8.22;57.40;99453.97;3143000;28;20480;-69
2022/04/06 04:29:15;;;;;;;;;;;;;;;8.25;57.23;99461.63;3143085;28;20433;-69
2022/04/06 04:30:47;;;;;;;19.45;8.68;;;;;;;8.39;56.90;99472.31;3147492;28;19928;-69
2022/04/06 04:32:19;;;;;;;16.95;9.15;;;;;;;8.39;56.53;99466.28;3144311;28;20120;-69
2022/04/06 04:33:51;;;;;;;21.35;10.07;;;;;;;8.47;56.31;99471.19;3144370;28;20051;-69
2022/04/06 04:35:23;;;;;;;23.55;10.60;;;;;;;8.50;55.96;99474.47;3142491;28;20200;-68
2022/04/06 04:36:55;;;;;;;22.35;9.32;;;;;;;8.52;56.03;99477.00;3141531;28;20143;-68
2022/04/06 04:38:26;;;;;;;24.45;10.00;;;;;;;8.55;55.96;99480.34;3147080;28;20052;-70
2022/04/06 04:39:58;;;;;;;23.67;10.10;;;;;;;8.58;55.79;99487.16;3142918;28;20048;-68
2022/04/06 04:41:30;;;;;;;19.73;9.95;;;;;;;8.59;55.65;99481.88;3146625;28;20153;-69
2022/04/06 04:43:04;;;;;;;24.25;9.30;;;;;;;8.62;55.64;99488.69;3139573;28;20102;-69
2022/04/06 04:44:35;;;;;;;;;;;;;;;8.46;55.83;99485.91;3148161;28;20147;-69
2022/04/06 04:46:08;;;;;;;21.95;10.30;;;;;;;8.49;55.72;99478.00;3139235;28;20428;-69
2022/04/06 04:47:40;;;;;;;25.30;10.02;;;;;;;8.65;55.55;99480.78;3146553;28;20095;-69
2022/04/06 04:49:12;;;;;;;24.70;10.25;;;;;;;8.66;55.65;99474.66;3146982;28;20117;-70
2022/04/06 04:50:44;;;;;;;31.58;10.07;;;;;;;8.67;55.11;99473.78;3143266;28;20055;-70
2022/04/06 04:52:16;;;;;;;22.80;10.13;;;;;;;8.79;55.06;99483.63;3146250;28;20062;-68
2022/04/06 04:53:49;;;;;;;23.13;9.65;;;;;;;8.85;55.04;99487.72;3142312;28;20058;-69
2022/04/06 04:55:23;;;;;;;28.83;10.50;;;;;;;8.86;54.94;99489.41;3146707;28;20056;-69
2022/04/06 04:56:59;;;;;;;37.83;10.95;;;;;;;8.92;54.87;99491.72;3143787;28;20508;-69
2022/04/06 04:58:37;;;;;;;27.27;10.82;;;;;;;8.97;54.82;99491.53;3148068;28;20595;-69
2022/04/06 05:00:10;;;;;;;22.92;10.55;;;;;;;8.96;54.51;99492.44;3138205;28;20502;-69
2022/04/06 05:01:45;;;;;;;27.40;10.90;;;;;;;8.91;54.29;99482.25;3143221;28;20135;-70
2022/04/06 05:03:18;;;;;;;23.17;10.18;;;;;;;8.93;54.24;99477.81;3147254;28;20166;-68
2022/04/06 05:04:50;;;;;;;22.85;10.05;;;;;;;9.03;54.10;99494.72;3139647;28;20581;-69
2022/04/06 05:06:22;;;;;;;20.95;8.82;;;;;;;9.01;54.12;99488.72;3137401;28;20535;-69
2022/04/06 05:07:57;;;;;;;18.30;9.43;;;;;;;9.05;54.19;99495.50;3146228;28;20062;-70
2022/04/06 05:09:29;;;;;;;27.63;9.70;;;;;;;9.07;53.90;99498.00;3145860;28;20106;-69
2022/04/06 05:11:00;;;;;;;26.08;10.38;;;;;;;9.09;53.92;99489.25;3142445;28;20056;-68
2022/04/06 05:12:32;;;;;;;28.83;10.23;;;;;;;9.16;53.75;99500.19;3137282;28;20128;-69
2022/04/06 05:14:05;;;;;;;27.77;10.00;;;;;;;9.19;53.78;99494.88;3143350;28;20481;-68
2022/04/06 05:15:37;;;;;;;;;;;;;;;9.09;53.96;99506.59;3147285;28;20137;-68
2022/04/06 05:17:09;;;;;;;21.95;9.70;;;;;;;9.20;53.85;99504.38;3141847;28;20141;-68
2022/04/06 05:18:42;;;;;;;28.15;9.95;;;;;;;9.32;53.56;99503.81;3146284;28;20106;-69
2022/04/06 05:20:14;;;;;;;23.98;10.30;;;;;;;9.21;53.41;99477.47;3142891;28;20058;-70
2022/04/06 05:21:46;;;;;;;25.63;9.13;;;;;;;9.45;53.59;99508.47;3147106;28;20056;-70
2022/04/06 05:23:18;;;;;;;21.13;9.45;;;;;;;9.50;52.98;99498.72;3143586;28;20075;-67
2022/04/06 05:24:51;;;;;;;29.48;9.50;;;;;;;9.65;52.83;99508.41;3135694;28;20278;-69
2022/04/06 05:26:23;;;;;;;24.63;10.35;;;;;;;9.77;52.49;99509.59;3137481;28;20052;-68
2022/04/06 05:27:56;;;;;;;28.75;10.57;;;;;;;9.88;52.35;99514.28;3142127;28;20052;-67
2022/04/06 05:29:29;;;;;;;;;;;;;;;9.85;52.73;99517.03;3141534;28;20108;-68
2022/04/06 05:31:02;;;;;;;23.85;9.15;;;;;;;10.06;52.29;99517.75;3140707;28;19923;-67
2022/04/06 05:32:34;;;;;;;27.02;10.07;;;;;;;10.20;51.62;99510.16;3140097;28;20041;-68
2022/04/06 05:34:06;;;;;;;30.15;9.85;;;;;;;10.42;51.34;99516.03;3146358;28;20553;-68
2022/04/06 05:35:37;;;;;;;21.75;9.45;;;;;;;10.66;51.27;99524.38;3155872;28;20722;-65
2022/04/06 05:37:10;;;;;;;27.33;9.38;;;;;;;10.92;50.99;99523.09;3147331;28;20055;-65
2022/04/06 05:38:41;;;;;;;20.23;9.43;;;;;;;11.03;50.62;99501.69;3156171;28;20044;-65
2022/04/06 05:40:20;;;;;;;18.17;9.32;;;;;;;11.37;50.06;99524.22;3153539;28;20060;-65
2022/04/06 05:41:51;;;;;;;24.70;9.48;;;;;;;11.54;49.43;99528.53;3155086;28;20101;-67
2022/04/06 05:43:23;;;;;;;32.42;14.52;;;;;;;11.68;48.97;99532.16;3153540;28;20049;-67
2022/04/06 05:44:57;;;;;;;36.67;17.60;;;;;;;11.82;48.71;99520.06;3154310;28;20154;-67
2022/04/06 05:46:29;;;;;;;37.80;20.60;;;;;;;12.00;48.26;99520.84;3156001;28;20076;-68
2022/04/06 05:48:02;;;;;;;36.97;12.85;;;;;;;12.62;47.99;99517.38;3150389;28;20040;-68
2022/04/06 05:49:34;;;;;;;32.85;14.70;;;;;;;13.82;46.63;99524.94;3146039;28;20059;-69
2022/04/06 05:51:06;;;;;;;37.55;17.40;;;;;;;15.42;44.74;99517.00;3145765;28;20048;-69
2022/04/06 05:52:38;;;;;;;24.08;9.70;;;;;;;17.08;41.39;99515.47;3153016;28;20100;-69
2022/04/06 05:54:09;;;;;;;45.50;24.48;;;;;;;18.64;38.65;99508.28;3148552;28;20109;-69
2022/04/06 05:55:42;;;;;;;26.33;12.18;;;;;;;20.19;36.44;99511.59;3156025;28;20056;-67
2022/04/06 05:57:14;;;;;;;37.22;10.05;;;;;;;21.50;33.90;99487.19;3149058;28;20059;-71
2022/04/06 05:58:46;;;;;;;19.48;10.05;;;;;;;23.02;31.91;99513.88;3156386;28;20048;-69
2022/04/06 06:00:20;;;;;;;28.75;9.20;;;;;;;24.29;30.01;99517.38;3155308;28;20059;-69
2022/04/06 06:01:52;;;;;;;14.77;8.73;;;;;;;25.41;28.31;99510.50;3155976;28;20056;-69
2022/04/06 06:03:24;;;;;;;25.77;10.18;;;;;;;26.48;26.47;99505.41;3156103;28;20048;-69
2022/04/06 06:04:56;;;;;;;22.33;9.38;;;;;;;27.34;24.89;99470.38;3153518;28;20097;-70
2022/04/06 06:06:28;;;;;;;17.58;9.50;;;;;;;28.51;23.39;99508.56;3154012;28;20159;-70
2022/04/06 06:07:59;;;;;;;22.88;9.13;;;;;;;29.43;21.98;99512.97;3153573;28;20048;-69
2022/04/06 06:09:32;;;;;;;22.65;9.15;;;;;;;30.22;21.49;99510.81;3144931;28;20045;-70
2022/04/06 06:11:04;;;;;;;23.75;8.88;;;;;;;30.93;20.68;99502.19;3152007;28;20048;-70
2022/04/06 06:12:36;;;;;;;13.07;8.32;;;;;;;31.69;19.72;99505.09;3143765;28;20048;-71
2022/04/06 06:14:08;;;;;;;23.20;8.30;;;;;;;32.45;18.97;99511.56;3155669;28;20164;-69
2022/04/06 06:15:42;;;;;;;16.63;8.30;;;;;;;33.14;18.15;99509.72;3144939;28;20121;-69
2022/04/06 06:17:13;;;;;;;14.50;7.70;;;;;;;33.71;17.57;99502.22;3150699;28;20048;-69
2022/04/06 06:18:45;;;;;;;17.20;8.10;;;;;;;34.29;16.66;99506.25;3153498;28;20117;-69
2022/04/06 06:20:18;;;;;;;15.93;7.70;;;;;;;34.86;16.32;99503.06;3150599;28;20048;-69
2022/04/06 06:21:49;;;;;;;16.70;7.50;;;;;;;35.36;15.68;99501.75;3151169;28;20079;-66
2022/04/06 06:23:21;;;;;;;14.38;8.25;;;;;;;35.76;15.29;99502.59;3157157;28;20139;-67
2022/04/06 06:24:53;;;;;;;16.00;7.50;;;;;;;36.15;14.69;99499.28;3150564;28;20408;-67
2022/04/06 06:26:25;;;;;;;16.15;7.82;;;;;;;36.48;14.38;99505.78;3157727;28;20199;-65
2022/04/06 06:27:57;;;;;;;12.93;7.43;;;;;;;36.79;14.15;99513.34;3153197;28;20048;-68
2022/04/06 06:29:29;;;;;;;10.70;7.10;;;;;;;37.10;13.94;99502.97;3147605;28;20056;-65
2022/04/06 06:31:02;;;;;;;18.63;7.85;;;;;;;37.49;13.40;99505.69;3151444;28;20048;-66
2022/04/06 06:32:34;;;;;;;10.43;7.10;;;;;;;37.67;13.51;99499.09;3148889;28;20075;-65
2022/04/06 06:34:07;;;;;;;16.33;7.38;;;;;;;37.83;13.26;99506.31;3151266;28;20058;-66
2022/04/06 06:35:39;;;;;;;15.20;7.50;;;;;;;37.99;13.12;99508.16;3157235;28;20105;-65
2022/04/06 06:37:12;;;;;;;10.65;7.45;;;;;;;38.13;12.74;99513.19;3158178;28;20494;-64
2022/04/06 06:38:44;;;;;;;11.32;6.97;;;;;;;38.35;12.63;99507.69;3146113;28;20487;-65
2022/04/06 06:40:17;;;;;;;16.70;7.00;;;;;;;38.60;12.17;99509.81;3147129;28;20102;-65
2022/04/06 06:41:49;;;;;;;17.80;7.05;;;;;;;38.73;12.15;99511.28;3151211;28;20476;-65
2022/04/06 06:43:21;;;;;;;17.43;7.93;;;;;;;38.83;12.43;99514.06;3154539;28;20105;-69
2022/04/06 06:44:53;;;;;;;22.67;7.15;;;;;;;38.96;12.25;99513.66;3149975;28;20134;-68
2022/04/06 06:46:26;;;;;;;13.27;7.57;;;;;;;38.93;11.79;99514.16;3149462;28;20138;-68
2022/04/06 06:47:58;;;;;;;13.63;7.05;;;;;;;38.97;12.04;99515.28;3149036;28;20064;-66
2022/04/06 06:49:30;;;;;;;14.13;7.40;;;;;;;39.14;11.54;99515.91;3154299;28;20044;-68
2022/04/06 06:51:02;;;;;;;22.10;7.63;;;;;;;39.38;11.76;99520.16;3148051;28;20048;-68
2022/04/06 06:52:35;;;;;;;15.45;7.63;;;;;;;39.66;11.46;99513.44;3155069;28;20136;-68
2022/04/06 06:54:07;;;;;;;9.10;7.13;;;;;;;39.98;11.19;99516.00;3157313;28;20504;-67
2022/04/06 06:55:39;;;;;;;15.73;8.02;;;;;;;40.22;11.13;99522.59;3157047;28;20367;-66
2022/04/06 06:57:11;;;;;;;18.20;7.73;;;;;;;40.46;10.73;99514.69;3156705;28;20483;-68
2022/04/06 06:58:43;;;;;;;17.67;7.90;;;;;;;40.57;10.59;99514.69;3150686;28;20055;-67
2022/04/06 07:00:16;;;;;;;13.83;8.07;;;;;;;40.68;10.50;99513.63;3145836;28;20059;-66
2022/04/06 07:01:50;;;;;;;12.52;7.68;;;;;;;40.84;10.73;99520.69;3154667;28;20443;-69
2022/04/06 07:03:21;;;;;;;19.25;7.82;;;;;;;40.97;10.38;99519.31;3158060;28;20204;-68
2022/04/06 07:04:54;;;;;;;13.43;7.55;;;;;;;41.08;10.79;99528.31;3152155;28;20052;-68
2022/04/06 07:06:25;;;;;;;14.63;8.23;;;;;;;41.20;10.23;99530.75;3145665;28;20059;-67
2022/04/06 07:08:00;;;;;;;15.33;7.83;;;;;;;41.45;10.44;99519.72;3148226;28;20113;-67
2022/04/06 07:09:33;;;;;;;17.77;8.07;;;;;;;41.67;10.39;99521.28;3155693;28;20375;-67
2022/04/06 07:11:05;;;;;;;12.13;6.93;;;;;;;41.94;9.76;99516.22;3155655;28;20091;-67
2022/04/06 07:12:37;;;;;;;12.75;7.13;;;;;;;42.09;9.75;99511.75;3148464;28;20730;-68
2022/04/06 07:14:09;;;;;;;14.77;7.15;;;;;;;42.15;10.01;99513.34;3155082;28;20071;-66
2022/04/06 07:15:41;;;;;;;11.60;6.95;;;;;;;42.10;9.55;99508.75;3157390;28;20048;-68
2022/04/06 07:17:16;;;;;;;12.88;7.13;;;;;;;42.02;9.38;99512.91;3157596;28;20534;-65